createdAt,value
2017-10-12T00:01:53.868Z,14.90
2017-10-12T00:04:20.093Z,15.93
2017-10-12T00:06:46.301Z,13.88
2017-10-12T00:09:12.494Z,14.75
2017-10-12T00:11:38.732Z,13.07
2017-10-12T00:14:04.931Z,15.45
2017-10-12T00:16:31.148Z,13.68
2017-10-12T00:18:57.352Z,13.90
2017-10-12T00:21:23.569Z,13.95
2017-10-12T00:23:49.780Z,13.62
2017-10-12T00:26:16.376Z,12.43
2017-10-12T00:28:42.594Z,11.45
2017-10-12T00:31:08.827Z,13.50
2017-10-12T00:33:35.038Z,14.00
2017-10-12T00:36:01.288Z,12.07
2017-10-12T00:38:27.513Z,12.60
2017-10-12T00:40:53.746Z,14.70
2017-10-12T00:43:19.989Z,13.80
2017-10-12T00:45:46.195Z,14.07
2017-10-12T00:48:12.439Z,14.05
2017-10-12T00:50:38.637Z,14.87
2017-10-12T00:53:04.871Z,14.95
2017-10-12T00:55:31.120Z,16.08
2017-10-12T00:57:57.331Z,14.57
2017-10-12T01:00:23.597Z,13.88
2017-10-12T01:02:49.827Z,12.93
2017-10-12T01:05:16.067Z,14.57
2017-10-12T01:07:42.310Z,14.18
2017-10-12T01:10:08.575Z,16.08
2017-10-12T01:12:34.826Z,13.20
2017-10-12T01:15:01.056Z,15.60
2017-10-12T01:17:27.254Z,14.35
2017-10-12T01:19:53.534Z,15.85
2017-10-12T01:22:19.797Z,15.07
2017-10-12T01:24:45.998Z,16.85
2017-10-12T01:27:12.633Z,16.00
2017-10-12T01:29:39.243Z,16.25
2017-10-12T01:32:05.503Z,16.60
2017-10-12T01:34:32.086Z,14.27
2017-10-12T01:36:58.740Z,14.57
2017-10-12T01:39:24.967Z,14.73
2017-10-12T01:41:51.178Z,15.25
2017-10-12T01:44:17.666Z,15.48
2017-10-12T01:46:44.307Z,15.50
2017-10-12T01:49:12.963Z,14.77
2017-10-12T01:51:39.224Z,14.50
2017-10-12T01:54:05.811Z,15.60
2017-10-12T01:56:32.199Z,14.43
2017-10-12T01:58:58.684Z,13.68
2017-10-12T02:01:24.872Z,14.65
2017-10-12T02:03:51.106Z,15.32
2017-10-12T02:06:17.328Z,13.73
2017-10-12T02:08:43.544Z,16.05
2017-10-12T02:11:09.784Z,14.45
2017-10-12T02:13:35.966Z,15.77
2017-10-12T02:16:02.196Z,13.38
2017-10-12T02:18:28.449Z,13.95
2017-10-12T02:20:54.674Z,12.57
2017-10-12T02:23:21.261Z,13.07
2017-10-12T02:25:47.508Z,14.35
2017-10-12T02:28:13.760Z,14.10
2017-10-12T02:30:40.358Z,13.95
2017-10-12T02:33:06.589Z,14.40
2017-10-12T02:35:32.795Z,14.27
2017-10-12T02:37:59.020Z,13.07
2017-10-12T02:40:25.236Z,13.65
2017-10-12T02:42:51.432Z,16.50
2017-10-12T02:45:18.052Z,13.95
2017-10-12T02:47:44.295Z,14.70
2017-10-12T02:50:10.935Z,14.45
2017-10-12T02:52:37.533Z,15.43
2017-10-12T02:55:03.785Z,17.70
2017-10-12T02:57:30.010Z,15.18
2017-10-12T02:59:56.208Z,17.33
2017-10-12T03:02:22.459Z,20.35
2017-10-12T03:04:48.658Z,17.37
2017-10-12T03:07:14.888Z,15.70
2017-10-12T03:09:41.104Z,14.95
2017-10-12T03:12:07.336Z,15.88
2017-10-12T03:14:33.538Z,15.05
2017-10-12T03:17:00.125Z,14.75
2017-10-12T03:19:26.324Z,15.07
2017-10-12T03:21:52.530Z,15.68
2017-10-12T03:24:18.782Z,15.80
2017-10-12T03:26:45.036Z,15.60
2017-10-12T03:29:11.283Z,14.85
2017-10-12T03:31:37.502Z,14.15
2017-10-12T03:34:03.712Z,15.70
2017-10-12T03:36:29.971Z,16.10
2017-10-12T03:38:56.191Z,15.60
2017-10-12T03:41:22.451Z,13.43
2017-10-12T03:43:48.695Z,15.70
2017-10-12T03:46:14.964Z,14.60
2017-10-12T03:48:41.210Z,17.17
2017-10-12T03:51:07.732Z,15.48
2017-10-12T03:53:33.997Z,15.10
2017-10-12T03:56:00.188Z,15.55
2017-10-12T03:58:26.396Z,14.32
2017-10-12T04:00:52.586Z,14.68
2017-10-12T04:03:19.172Z,15.35
2017-10-12T04:05:45.393Z,14.25
2017-10-12T04:08:11.611Z,18.85
2017-10-12T04:10:37.792Z,16.73
2017-10-12T04:13:04.053Z,14.90
2017-10-12T04:15:30.271Z,16.17
2017-10-12T04:17:56.469Z,15.30
2017-10-12T04:20:22.685Z,17.15
2017-10-12T04:22:49.829Z,16.08
2017-10-12T04:25:16.043Z,17.95
2017-10-12T04:27:42.305Z,18.70
2017-10-12T04:30:08.894Z,16.27
2017-10-12T04:32:35.094Z,17.08
2017-10-12T04:35:01.336Z,18.23
2017-10-12T04:37:27.521Z,17.23
2017-10-12T04:39:53.729Z,18.23
2017-10-12T04:42:19.934Z,16.92
2017-10-12T04:44:46.127Z,17.52
2017-10-12T04:47:12.408Z,18.35
2017-10-12T04:49:38.606Z,17.80
2017-10-12T04:52:04.813Z,17.00
2017-10-12T04:54:31.003Z,17.00
2017-10-12T04:56:57.252Z,16.45
2017-10-12T04:59:23.860Z,16.77
2017-10-12T05:01:51.064Z,15.15
2017-10-12T05:04:17.300Z,26.08
2017-10-12T05:06:43.526Z,17.00
2017-10-12T05:09:09.743Z,15.90
2017-10-12T05:11:35.931Z,15.80
2017-10-12T05:14:02.139Z,15.57
2017-10-12T05:16:28.318Z,15.52
2017-10-12T05:18:54.547Z,16.73
2017-10-12T05:21:20.756Z,15.25
2017-10-12T05:23:47.794Z,15.52
2017-10-12T05:26:14.015Z,16.45
2017-10-12T05:28:40.261Z,14.45
2017-10-12T05:31:06.855Z,16.40
2017-10-12T05:33:33.042Z,16.65
2017-10-12T05:35:59.241Z,15.68
2017-10-12T05:38:25.448Z,15.75
2017-10-12T05:40:51.962Z,17.98
2017-10-12T05:43:18.143Z,21.33
2017-10-12T05:45:44.338Z,17.52
2017-10-12T05:48:10.540Z,14.95
2017-10-12T05:50:36.749Z,17.60
2017-10-12T05:53:03.009Z,17.20
2017-10-12T05:55:29.209Z,17.42
2017-10-12T05:57:55.474Z,19.10
2017-10-12T06:00:21.696Z,17.87
2017-10-12T06:02:47.939Z,16.23
2017-10-12T06:05:14.194Z,20.37
2017-10-12T06:07:40.387Z,20.73
2017-10-12T06:10:06.590Z,18.95
2017-10-12T06:12:32.834Z,17.10
2017-10-12T06:14:59.073Z,18.42
2017-10-12T06:17:25.323Z,17.40
2017-10-12T06:19:51.504Z,16.50
2017-10-12T06:22:17.720Z,18.42
2017-10-12T06:24:43.901Z,18.52
2017-10-12T06:27:10.149Z,20.08
2017-10-12T06:29:36.737Z,21.25
2017-10-12T06:32:02.961Z,26.20
2017-10-12T06:34:29.167Z,34.65
2017-10-12T06:36:55.396Z,39.38
2017-10-12T06:39:21.605Z,35.35
2017-10-12T06:41:47.872Z,41.70
2017-10-12T06:44:14.100Z,28.77
2017-10-12T06:46:40.345Z,32.33
2017-10-12T06:49:06.612Z,26.58
2017-10-12T06:51:33.217Z,19.85
2017-10-12T06:53:59.811Z,18.15
2017-10-12T06:56:26.014Z,17.50
2017-10-12T06:58:52.256Z,18.73
2017-10-12T07:01:18.466Z,19.33
2017-10-12T07:03:44.665Z,15.38
2017-10-12T07:06:10.871Z,16.65
2017-10-12T07:08:37.054Z,14.18
2017-10-12T07:11:03.273Z,16.15
2017-10-12T07:13:29.926Z,14.55
2017-10-12T07:15:56.114Z,13.95
2017-10-12T07:18:22.324Z,15.73
2017-10-12T07:20:48.543Z,19.65
2017-10-12T07:23:14.774Z,19.52
2017-10-12T07:25:40.990Z,23.45
2017-10-12T07:28:07.218Z,14.48
2017-10-12T07:30:37.594Z,14.60
2017-10-12T07:33:04.202Z,16.12
2017-10-12T07:35:30.428Z,13.20
2017-10-12T07:37:56.639Z,13.90
2017-10-12T07:40:22.890Z,17.23
2017-10-12T07:42:49.490Z,18.80
2017-10-12T07:45:15.695Z,16.80
2017-10-12T07:47:41.883Z,14.05
2017-10-12T07:50:10.858Z,15.07
2017-10-12T07:52:37.068Z,11.38
2017-10-12T07:55:03.271Z,14.90
2017-10-12T07:57:29.479Z,11.85
2017-10-12T07:59:55.662Z,13.45
2017-10-12T08:02:21.875Z,15.45
2017-10-12T08:04:48.152Z,14.68
2017-10-12T08:07:14.378Z,12.27
2017-10-12T08:09:40.601Z,11.30
2017-10-12T08:12:06.796Z,11.30
2017-10-12T08:14:33.003Z,10.02
2017-10-12T08:16:59.198Z,9.82
2017-10-12T08:19:25.805Z,10.23
2017-10-12T08:21:52.066Z,10.80
2017-10-12T08:24:18.656Z,9.85
2017-10-12T08:26:44.891Z,12.90
2017-10-12T08:29:11.609Z,11.12
2017-10-12T08:31:37.917Z,11.82
2017-10-12T08:34:04.123Z,13.57
2017-10-12T08:36:30.362Z,11.95
2017-10-12T08:38:56.565Z,11.68
2017-10-12T08:41:23.108Z,10.55
2017-10-12T08:43:49.678Z,8.20
2017-10-12T08:46:15.879Z,8.00
2017-10-12T08:48:42.117Z,10.57
2017-10-12T08:51:09.121Z,8.45
2017-10-12T08:53:35.388Z,8.63
2017-10-12T08:56:01.608Z,10.30
2017-10-12T08:58:28.224Z,12.30
2017-10-12T09:00:54.465Z,9.80
2017-10-12T09:03:20.665Z,10.10
2017-10-12T09:05:46.909Z,12.48
2017-10-12T09:08:13.159Z,10.98
2017-10-12T09:10:39.450Z,8.20
2017-10-12T09:13:05.650Z,9.25
2017-10-12T09:15:31.869Z,8.35
2017-10-12T09:17:58.064Z,7.97
2017-10-12T09:20:24.382Z,8.17
2017-10-12T09:22:50.587Z,6.93
2017-10-12T09:25:16.790Z,12.30
2017-10-12T09:27:43.072Z,8.00
2017-10-12T09:30:09.316Z,7.60
2017-10-12T09:32:35.936Z,6.30
2017-10-12T09:35:02.200Z,6.13
2017-10-12T09:37:28.819Z,5.50
2017-10-12T09:39:55.090Z,6.40
2017-10-12T09:42:21.656Z,6.30
2017-10-12T09:44:47.899Z,5.57
2017-10-12T09:47:14.134Z,6.90
2017-10-12T09:49:40.374Z,6.10
2017-10-12T09:52:07.074Z,5.93
2017-10-12T09:54:33.359Z,6.93
2017-10-12T09:57:00.035Z,6.83
2017-10-12T09:59:26.300Z,7.67
2017-10-12T10:01:52.529Z,6.77
2017-10-12T10:04:18.769Z,6.63
2017-10-12T10:06:45.450Z,6.00
2017-10-12T10:09:11.667Z,6.60
2017-10-12T10:11:37.908Z,6.67
2017-10-12T10:14:05.026Z,6.20
2017-10-12T10:16:31.621Z,5.30
2017-10-12T10:18:58.488Z,6.33
2017-10-12T10:21:24.697Z,6.03
2017-10-12T10:23:50.896Z,7.20
2017-10-12T10:26:17.138Z,5.23
2017-10-12T10:28:43.393Z,6.80
2017-10-12T10:31:09.582Z,6.20
2017-10-12T10:33:35.838Z,3.93
2017-10-12T10:36:02.073Z,2.70
2017-10-12T10:38:28.292Z,2.50
2017-10-12T10:40:54.501Z,2.80
2017-10-12T10:43:20.706Z,2.97
2017-10-12T10:45:46.878Z,2.40
2017-10-12T10:48:13.096Z,3.83
2017-10-12T10:50:39.332Z,4.30
2017-10-12T10:53:05.564Z,5.10
2017-10-12T10:55:31.866Z,3.53
2017-10-12T10:57:58.048Z,2.40
2017-10-12T11:00:24.273Z,4.40
2017-10-12T11:02:50.531Z,2.50
2017-10-12T11:05:17.011Z,3.77
2017-10-12T11:07:43.216Z,4.80
2017-10-12T11:10:09.429Z,3.60
2017-10-12T11:12:35.668Z,4.53
2017-10-12T11:15:01.914Z,4.53
2017-10-12T11:17:28.163Z,4.77
2017-10-12T11:19:54.819Z,5.20
2017-10-12T11:22:21.423Z,4.90
2017-10-12T11:24:47.640Z,3.40
2017-10-12T11:27:13.913Z,5.60
2017-10-12T11:29:40.128Z,4.47
2017-10-12T11:32:06.712Z,4.40
2017-10-12T11:34:32.955Z,3.63
2017-10-12T11:36:59.174Z,3.17
2017-10-12T11:39:25.650Z,2.60
2017-10-12T11:41:51.865Z,2.07
2017-10-12T11:44:18.107Z,2.00
2017-10-12T11:46:44.709Z,1.57
2017-10-12T11:49:10.916Z,1.37
2017-10-12T11:51:37.174Z,2.63
2017-10-12T11:54:03.379Z,3.30
2017-10-12T11:56:29.608Z,1.40
2017-10-12T11:58:55.816Z,1.67
2017-10-12T12:01:22.041Z,3.33
2017-10-12T12:03:48.299Z,2.33
2017-10-12T12:06:14.492Z,1.50
2017-10-12T12:08:40.725Z,1.63
2017-10-12T12:11:06.956Z,1.50
2017-10-12T12:13:33.188Z,4.70
2017-10-12T12:15:59.409Z,2.30
2017-10-12T12:18:26.030Z,1.40
2017-10-12T12:20:52.612Z,1.30
2017-10-12T12:23:18.838Z,3.47
2017-10-12T12:25:45.078Z,2.30
2017-10-12T12:28:11.303Z,1.13
2017-10-12T12:30:37.531Z,1.63
2017-10-12T12:33:03.759Z,1.40
2017-10-12T12:35:30.010Z,2.80
2017-10-12T12:37:56.248Z,1.57
2017-10-12T12:40:22.497Z,1.77
2017-10-12T12:42:48.714Z,2.13
2017-10-12T12:45:14.961Z,1.73
2017-10-12T12:47:41.228Z,3.93
2017-10-12T12:50:07.476Z,3.10
2017-10-12T12:52:33.725Z,1.93
2017-10-12T12:55:00.330Z,1.80
2017-10-12T12:57:26.555Z,2.00
2017-10-12T12:59:52.760Z,2.37
2017-10-12T13:02:19.016Z,2.60
2017-10-12T13:04:45.237Z,2.63
2017-10-12T13:07:11.473Z,1.93
2017-10-12T13:09:37.726Z,2.47
2017-10-12T13:12:04.326Z,1.70
2017-10-12T13:14:30.586Z,1.70
2017-10-12T13:16:56.779Z,2.30
2017-10-12T13:19:23.066Z,1.90
2017-10-12T13:21:49.282Z,3.20
2017-10-12T13:24:16.994Z,1.73
2017-10-12T13:26:43.277Z,1.77
2017-10-12T13:29:09.602Z,2.37
2017-10-12T13:31:36.310Z,1.67
2017-10-12T13:34:02.554Z,1.90
2017-10-12T13:36:28.873Z,2.10
2017-10-12T13:38:55.119Z,1.50
2017-10-12T13:41:21.758Z,2.00
2017-10-12T13:43:48.402Z,2.70
2017-10-12T13:46:15.073Z,2.47
2017-10-12T13:48:41.338Z,2.73
2017-10-12T13:51:07.674Z,2.13
2017-10-12T13:53:34.005Z,2.70
2017-10-12T13:56:00.267Z,1.90
2017-10-12T13:58:26.671Z,3.47
2017-10-12T14:00:53.431Z,2.13
2017-10-12T14:03:20.139Z,2.10
2017-10-12T14:05:46.418Z,1.90
2017-10-12T14:08:12.619Z,3.57
2017-10-12T14:10:39.224Z,2.37
2017-10-12T14:13:05.423Z,1.60
2017-10-12T14:15:31.653Z,1.40
2017-10-12T14:17:57.883Z,1.70
2017-10-12T14:20:24.079Z,1.70
2017-10-12T14:22:50.704Z,1.70
2017-10-12T14:25:17.294Z,1.43
2017-10-12T14:27:43.576Z,1.60
2017-10-12T14:30:10.188Z,2.10
2017-10-12T14:32:36.474Z,1.63
2017-10-12T14:35:02.677Z,1.47
2017-10-12T14:37:29.263Z,1.83
2017-10-12T14:39:55.447Z,1.57
2017-10-12T14:42:22.538Z,2.37
2017-10-12T14:44:49.596Z,1.90
2017-10-12T14:47:16.064Z,2.80
2017-10-12T14:49:42.635Z,2.00
2017-10-12T14:52:08.840Z,1.40
2017-10-12T14:54:35.056Z,2.00
2017-10-12T14:57:01.249Z,3.40
2017-10-12T14:59:27.775Z,4.33
2017-10-12T15:01:53.973Z,3.70
2017-10-12T15:04:20.190Z,2.43
2017-10-12T15:06:47.095Z,3.53
2017-10-12T15:09:13.283Z,2.67
2017-10-12T15:11:40.472Z,2.40
2017-10-12T15:14:06.973Z,2.50
2017-10-12T15:16:33.188Z,2.57
2017-10-12T15:18:59.391Z,3.23
2017-10-12T15:21:26.000Z,3.53
2017-10-12T15:23:52.244Z,2.83
2017-10-12T15:26:18.456Z,1.80
2017-10-12T15:28:44.676Z,2.63
2017-10-12T15:31:10.933Z,1.47
2017-10-12T15:33:37.176Z,3.23
2017-10-12T15:36:03.424Z,1.70
2017-10-12T15:38:29.645Z,2.03
2017-10-12T15:40:55.831Z,2.20
2017-10-12T15:43:22.346Z,2.13
2017-10-12T15:45:48.605Z,1.83
2017-10-12T15:48:14.834Z,3.23
2017-10-12T15:50:41.435Z,2.10
2017-10-12T15:53:07.658Z,1.87
2017-10-12T15:55:33.877Z,2.87
2017-10-12T15:58:00.149Z,2.63
2017-10-12T16:00:26.751Z,2.53
2017-10-12T16:02:53.796Z,2.40
2017-10-12T16:05:20.048Z,3.03
2017-10-12T16:07:46.975Z,3.20
2017-10-12T16:10:13.165Z,3.10
2017-10-12T16:12:39.400Z,2.93
2017-10-12T16:15:05.614Z,10.60
2017-10-12T16:17:31.817Z,3.30
2017-10-12T16:19:58.691Z,4.07
2017-10-12T16:24:51.196Z,5.13
2017-10-12T16:27:17.477Z,3.40
2017-10-12T16:29:43.763Z,3.60
2017-10-12T16:32:10.967Z,6.00
2017-10-12T16:34:38.139Z,7.10
2017-10-12T16:37:04.385Z,5.30
2017-10-12T16:39:30.646Z,6.37
2017-10-12T16:41:56.867Z,4.97
2017-10-12T16:44:23.540Z,10.37
2017-10-12T16:46:50.676Z,6.87
2017-10-12T16:49:16.912Z,6.90
2017-10-12T16:51:44.223Z,4.60
2017-10-12T16:54:11.063Z,4.83
2017-10-12T16:56:37.291Z,5.37
2017-10-12T16:59:03.562Z,4.70
2017-10-12T17:01:30.354Z,3.80
2017-10-12T17:03:56.580Z,5.00
2017-10-12T17:06:22.824Z,4.70
2017-10-12T17:08:49.104Z,3.80
2017-10-12T17:11:15.432Z,3.97
2017-10-12T17:13:41.743Z,3.93
2017-10-12T17:16:08.952Z,3.80
2017-10-12T17:18:35.283Z,4.00
2017-10-12T17:21:02.038Z,3.17
2017-10-12T17:25:55.047Z,4.10
2017-10-12T17:30:49.052Z,4.67
2017-10-12T17:33:15.532Z,5.27
2017-10-12T17:35:42.397Z,4.43
2017-10-12T17:38:09.223Z,5.43
2017-10-12T17:40:35.696Z,5.97
2017-10-12T17:43:03.087Z,5.53
2017-10-12T17:45:30.079Z,5.37
2017-10-12T17:47:56.614Z,7.20
2017-10-12T17:50:23.175Z,6.10
2017-10-12T17:52:49.952Z,8.27
2017-10-12T17:55:16.484Z,11.07
2017-10-12T17:57:44.906Z,7.97
2017-10-12T18:00:11.479Z,7.33
2017-10-12T18:02:39.208Z,7.67
2017-10-12T18:05:06.210Z,7.40
2017-10-12T18:07:32.677Z,8.07
2017-10-12T18:09:59.080Z,10.57
2017-10-12T18:12:26.706Z,11.60
2017-10-12T18:14:53.077Z,16.70
2017-10-12T18:17:21.052Z,17.07
2017-10-12T18:19:47.373Z,21.40
2017-10-12T18:22:13.815Z,20.03
2017-10-12T18:24:40.337Z,28.27
2017-10-12T18:27:06.976Z,15.53
2017-10-12T18:29:33.742Z,13.88
2017-10-12T18:32:02.455Z,9.07
2017-10-12T18:34:28.836Z,9.03
2017-10-12T18:36:55.893Z,9.03
2017-10-12T18:39:22.766Z,6.47
2017-10-12T18:41:49.621Z,6.20
2017-10-12T18:44:15.986Z,8.82
2017-10-12T18:46:42.295Z,9.43
2017-10-12T18:49:09.115Z,8.35
2017-10-12T18:51:35.608Z,9.90
2017-10-12T18:54:02.890Z,10.25
2017-10-12T18:56:29.398Z,11.30
2017-10-12T18:58:56.021Z,11.10
2017-10-12T19:01:22.686Z,17.20
2017-10-12T19:03:48.951Z,10.90
2017-10-12T19:06:15.287Z,10.65
2017-10-12T19:08:41.586Z,10.10
2017-10-12T19:11:08.157Z,9.60
2017-10-12T19:13:35.377Z,12.45
2017-10-12T19:16:01.781Z,8.52
2017-10-12T19:18:28.023Z,11.15
2017-10-12T19:20:54.370Z,9.82
2017-10-12T19:23:20.651Z,9.30
2017-10-12T19:25:46.935Z,8.57
2017-10-12T19:28:42.942Z,8.40
2017-10-12T19:30:39.620Z,8.63
2017-10-12T19:35:32.321Z,10.40
2017-10-12T19:37:59.197Z,8.00
2017-10-12T19:40:25.715Z,7.82
2017-10-12T19:42:52.326Z,6.80
2017-10-12T19:45:18.583Z,8.13
2017-10-12T19:47:45.870Z,7.62
2017-10-12T19:50:12.520Z,7.65
2017-10-12T19:52:38.795Z,6.75
2017-10-12T19:55:05.418Z,7.12
2017-10-12T19:57:31.828Z,6.20
2017-10-12T19:59:59.526Z,6.57
2017-10-12T20:02:26.422Z,6.60
2017-10-12T20:04:52.978Z,6.82
2017-10-12T20:07:19.324Z,6.20
2017-10-12T20:09:45.548Z,6.75
2017-10-12T20:12:11.802Z,6.12
2017-10-12T20:14:38.442Z,7.15
2017-10-12T20:17:05.415Z,8.75
2017-10-12T20:19:31.643Z,6.28
2017-10-12T20:21:57.861Z,6.95
2017-10-12T20:26:50.422Z,8.18
2017-10-12T20:29:31.769Z,16.05
2017-10-12T20:31:45.528Z,13.65
2017-10-12T20:34:11.893Z,12.20
2017-10-12T20:36:38.153Z,11.68
2017-10-12T20:39:05.164Z,10.23
2017-10-12T20:41:31.524Z,9.38
2017-10-12T20:43:57.758Z,13.00
2017-10-12T20:46:24.058Z,13.38
2017-10-12T20:48:50.552Z,14.38
2017-10-12T20:51:16.809Z,17.60
2017-10-12T20:53:43.005Z,25.50
2017-10-12T20:56:09.598Z,29.83
2017-10-12T20:58:35.824Z,27.05
2017-10-12T21:01:02.037Z,22.02
2017-10-12T21:03:29.662Z,14.57
2017-10-12T21:05:56.243Z,14.60
2017-10-12T21:08:22.439Z,13.57
2017-10-12T21:10:48.693Z,10.90
2017-10-12T21:13:15.911Z,10.02
2017-10-12T21:15:42.123Z,9.73
2017-10-12T21:18:08.365Z,9.07
2017-10-12T21:20:34.593Z,8.63
2017-10-12T21:23:00.848Z,7.40
2017-10-12T21:25:27.108Z,7.28
2017-10-12T21:27:53.373Z,8.10
2017-10-12T21:30:20.377Z,7.20
2017-10-12T21:32:46.579Z,8.82
2017-10-12T21:35:12.815Z,8.68
2017-10-12T21:37:39.043Z,8.25
2017-10-12T21:40:05.255Z,7.72
2017-10-12T21:42:31.462Z,7.80
2017-10-12T21:44:58.219Z,12.20
2017-10-12T21:47:25.088Z,11.50
2017-10-12T21:49:51.325Z,12.55
2017-10-12T21:52:18.393Z,11.98
2017-10-12T21:54:44.679Z,18.02
2017-10-12T21:57:10.886Z,16.52
2017-10-12T21:59:37.162Z,22.02
2017-10-12T22:02:04.313Z,18.40
2017-10-12T22:04:30.531Z,16.85
2017-10-12T22:06:56.791Z,18.65
2017-10-12T22:09:23.057Z,19.80
2017-10-12T22:11:49.363Z,20.27
2017-10-12T22:14:16.385Z,20.83
2017-10-12T22:16:43.163Z,19.92
2017-10-12T22:19:09.376Z,13.73
2017-10-12T22:21:35.599Z,12.10
2017-10-12T22:24:02.200Z,12.20
2017-10-12T22:26:28.399Z,10.98
2017-10-12T22:28:54.695Z,10.25
2017-10-12T22:31:20.915Z,8.85
2017-10-12T22:33:47.132Z,11.75
2017-10-12T22:36:13.375Z,8.63
2017-10-12T22:38:39.612Z,6.95
2017-10-12T22:41:06.506Z,8.02
2017-10-12T22:43:32.710Z,8.05
2017-10-12T22:45:58.963Z,9.55
2017-10-12T22:48:25.168Z,8.75
2017-10-12T22:50:51.385Z,7.55
2017-10-12T22:53:17.603Z,6.87
2017-10-12T22:55:43.798Z,7.53
2017-10-12T22:58:10.293Z,6.85
2017-10-12T23:00:38.346Z,6.40
2017-10-12T23:03:04.544Z,6.62
2017-10-12T23:05:30.772Z,9.23
2017-10-12T23:07:57.002Z,8.43
2017-10-12T23:10:23.207Z,7.20
2017-10-12T23:12:49.421Z,9.93
2017-10-12T23:15:15.644Z,7.28
2017-10-12T23:17:41.841Z,7.07
2017-10-12T23:20:08.032Z,7.25
2017-10-12T23:22:34.605Z,6.20
2017-10-12T23:25:00.830Z,7.80
2017-10-12T23:27:27.030Z,6.37
2017-10-12T23:29:53.321Z,6.50
2017-10-12T23:32:20.201Z,7.05
2017-10-12T23:34:46.397Z,7.07
2017-10-12T23:37:13.440Z,7.35
2017-10-12T23:39:40.278Z,7.80
2017-10-12T23:42:06.495Z,8.73
2017-10-12T23:44:32.731Z,11.68
2017-10-12T23:46:58.951Z,8.80
2017-10-12T23:49:25.160Z,7.78
2017-10-12T23:51:51.352Z,7.62
2017-10-12T23:54:17.584Z,8.02
2017-10-12T23:56:43.816Z,7.62
2017-10-12T23:59:10.436Z,7.53
